Time;durP1;ratioP1;P1;durP2;ratioP2;P2;SDS_P1;SDS_P2;PMS_P1;PMS_P2;Temp;Humidity;BMP_temperature;BMP_pressure;BME280_temperature;BME280_humidity;BME280_pressure;Samples;Min_cycle;Max_cycle;Signal;HPM_P1;HPM_P2
2021/12/25 00:00:15;;;;;;;1.73;0.73;;;-1.70;99.90;;;;;;4928938;29;20316;-95
2021/12/25 00:02:42;;;;;;;2.13;0.70;;;-1.80;99.90;;;;;;4927818;29;20215;-95
2021/12/25 00:05:09;;;;;;;0.70;0.50;;;-1.80;99.90;;;;;;4910500;29;20227;-94
2021/12/25 00:07:35;;;;;;;2.13;0.90;;;-1.80;99.90;;;;;;4910387;29;20186;-95
2021/12/25 00:10:02;;;;;;;2.77;1.30;;;-1.90;99.90;;;;;;4909901;29;20637;-95
2021/12/25 00:12:28;;;;;;;2.20;0.60;;;-1.90;99.90;;;;;;4927390;29;20202;-95
2021/12/25 00:14:55;;;;;;;1.43;0.50;;;-1.90;99.90;;;;;;4929123;29;20224;-95
2021/12/25 00:17:21;;;;;;;2.20;0.73;;;-1.90;99.90;;;;;;4926872;29;20198;-94
2021/12/25 00:19:47;;;;;;;2.80;0.60;;;-1.90;99.90;;;;;;4927078;29;20242;-94
2021/12/25 00:22:12;;;;;;;3.07;0.53;;;-1.90;99.90;;;;;;4912265;29;20203;-94
2021/12/25 00:24:43;;;;;;;3.33;0.60;;;-1.90;99.90;;;;;;4907038;29;20214;-94
2021/12/25 00:30:15;;;;;;;1.03;0.50;;;-2.00;99.90;;;;;;4947591;29;20253;-95
2021/12/25 00:35:13;;;;;;;2.67;0.70;;;-2.00;99.90;;;;;;4933066;29;20192;-95
2021/12/25 00:37:39;;;;;;;0.97;0.43;;;-2.00;99.90;;;;;;4911141;29;20448;-94
2021/12/25 00:40:05;;;;;;;2.50;0.53;;;-2.00;99.90;;;;;;4912148;29;20247;-94
2021/12/25 00:42:32;;;;;;;0.93;0.30;;;-2.00;99.90;;;;;;4943562;29;20224;-94
2021/12/25 00:44:57;;;;;;;2.93;0.60;;;-2.10;99.90;;;;;;4943708;29;20219;-96
2021/12/25 00:47:23;;;;;;;1.83;0.60;;;-2.10;99.90;;;;;;4920858;29;20197;-94
2021/12/25 00:49:50;;;;;;;1.33;0.60;;;-2.20;99.90;;;;;;4946988;29;20191;-94
2021/12/25 00:52:17;;;;;;;2.13;0.50;;;-2.20;99.90;;;;;;4923065;29;20196;-95
2021/12/25 00:54:44;;;;;;;4.47;0.50;;;-2.10;99.90;;;;;;4911590;29;20614;-95
2021/12/25 00:57:10;;;;;;;2.87;0.50;;;-2.20;99.90;;;;;;4911805;29;20202;-95
2021/12/25 00:59:36;;;;;;;1.50;0.47;;;-2.20;99.90;;;;;;4912542;29;20223;-94
2021/12/25 01:02:02;;;;;;;2.33;0.53;;;-2.20;99.90;;;;;;4916228;29;20618;-95
2021/12/25 01:04:27;;;;;;;2.90;0.50;;;-2.20;99.90;;;;;;4931228;29;20191;-95
2021/12/25 01:06:53;;;;;;;0.30;0.30;;;-2.20;99.90;;;;;;4927287;29;20186;-95
2021/12/25 01:09:21;;;;;;;1.20;0.50;;;-2.30;99.90;;;;;;5343357;23;20780;-95
2021/12/25 01:11:49;;;;;;;1.93;0.57;;;-2.30;99.90;;;;;;4968530;28;20181;-93
2021/12/25 01:14:31;;;;;;;1.23;0.57;;;-2.30;99.90;;;;;;4966758;28;20177;-95
2021/12/25 01:17:17;;;;;;;1.10;0.67;;;-2.30;99.90;;;;;;4964481;28;20712;-93
2021/12/25 01:30:05;;;;;;;0.97;0.50;;;-2.30;99.90;;;;;;4983086;28;20250;-94
2021/12/25 01:38:24;;;;;;;2.73;0.53;;;-2.40;99.90;;;;;;4984124;28;20216;-94
2021/12/25 01:41:08;;;;;;;2.87;0.50;;;-2.40;99.90;;;;;;4966002;28;20607;-94
2021/12/25 01:49:05;;;;;;;1.30;0.50;;;-2.40;99.90;;;;;;4983554;28;20180;-95
2021/12/25 01:51:33;;;;;;;3.83;0.60;;;-2.40;99.90;;;;;;4965854;28;20268;-93
2021/12/25 01:54:00;;;;;;;2.03;0.60;;;-2.40;99.90;;;;;;4965145;28;20185;-93
2021/12/25 01:56:27;;;;;;;1.70;0.73;;;-2.40;99.90;;;;;;4966123;28;20209;-94
2021/12/25 01:59:04;;;;;;;2.57;0.50;;;-2.30;99.90;;;;;;4965058;28;20299;-94
2021/12/25 02:01:31;;;;;;;1.10;0.50;;;-2.40;99.90;;;;;;4964506;28;20194;-94
2021/12/25 02:04:01;;;;;;;1.80;0.70;;;-2.40;99.90;;;;;;4965520;28;20180;-94
2021/12/25 02:06:29;;;;;;;2.37;0.50;;;-2.40;99.90;;;;;;4965912;28;20214;-93
2021/12/25 02:08:58;;;;;;;0.40;0.40;;;-2.40;99.90;;;;;;4966582;28;20655;-93
2021/12/25 02:11:30;;;;;;;0.50;0.40;;;-2.40;99.90;;;;;;4947246;29;20191;-93
2021/12/25 02:14:04;;;;;;;1.10;0.50;;;-2.40;99.90;;;;;;4948601;29;20190;-93
2021/12/25 02:16:51;;;;;;;0.63;0.60;;;-2.50;99.90;;;;;;4946805;29;20235;-94
2021/12/25 02:19:31;;;;;;;0.87;0.40;;;-2.50;99.90;;;;;;4947381;29;20214;-93
2021/12/25 02:22:01;;;;;;;0.83;0.47;;;-2.50;99.90;;;;;;4947537;29;20257;-93
2021/12/25 02:24:28;;;;;;;1.40;0.40;;;-2.50;99.90;;;;;;4947094;29;20182;-94
2021/12/25 02:26:55;;;;;;;2.20;0.40;;;-2.60;99.90;;;;;;4946758;29;20201;-93
2021/12/25 02:29:21;;;;;;;1.83;0.70;;;-2.60;99.90;;;;;;4946055;29;20214;-94
2021/12/25 02:31:47;;;;;;;1.23;0.67;;;-2.60;99.90;;;;;;4944213;29;20269;-93
2021/12/25 02:34:14;;;;;;;1.87;0.40;;;-2.70;99.90;;;;;;4945282;29;20220;-93
2021/12/25 02:36:41;;;;;;;2.13;0.50;;;-2.70;99.90;;;;;;4947040;29;20209;-92
2021/12/25 02:39:08;;;;;;;0.53;0.27;;;-2.70;99.90;;;;;;4944504;29;20213;-95
2021/12/25 02:41:34;;;;;;;1.57;0.60;;;-2.70;99.90;;;;;;4943499;29;20261;-93
2021/12/25 02:44:00;;;;;;;2.50;0.60;;;-2.80;99.90;;;;;;4943120;29;20282;-94
2021/12/25 02:46:27;;;;;;;0.70;0.40;;;-2.80;99.90;;;;;;4942536;29;20664;-93
2021/12/25 02:48:55;;;;;;;1.67;0.50;;;-2.80;99.90;;;;;;4942239;29;20528;-93
2021/12/25 02:51:21;;;;;;;0.93;0.47;;;-2.90;99.90;;;;;;4941742;29;20270;-94
2021/12/25 02:53:47;;;;;;;1.90;0.67;;;-2.90;99.90;;;;;;4941896;29;20213;-94
2021/12/25 02:56:13;;;;;;;1.90;0.60;;;-2.90;99.90;;;;;;4940999;29;20221;-94
2021/12/25 02:58:39;;;;;;;2.37;0.60;;;-2.90;99.90;;;;;;4940548;29;20698;-92
2021/12/25 03:01:12;;;;;;;2.50;0.50;;;-3.00;99.90;;;;;;4939456;29;20174;-93
2021/12/25 03:03:39;;;;;;;3.33;0.67;;;-3.00;99.90;;;;;;4940493;29;20202;-93
2021/12/25 03:06:06;;;;;;;1.73;0.67;;;-3.00;99.90;;;;;;4941190;29;20170;-94
2021/12/25 03:08:34;;;;;;;0.63;0.40;;;-3.00;99.90;;;;;;4940060;29;20174;-94
2021/12/25 03:11:00;;;;;;;0.73;0.40;;;-3.00;99.90;;;;;;4955882;28;20717;-94
2021/12/25 03:15:55;;;;;;;1.10;0.60;;;-3.10;99.90;;;;;;4976601;28;20165;-93
2021/12/25 03:18:28;;;;;;;1.20;0.40;;;-3.10;99.90;;;;;;4960010;28;20266;-94
2021/12/25 03:20:58;;;;;;;3.63;0.50;;;-3.10;99.90;;;;;;4958753;28;20199;-93
2021/12/25 03:23:27;;;;;;;2.90;0.50;;;-3.10;99.90;;;;;;4958766;28;20189;-94
2021/12/25 03:25:54;;;;;;;3.13;0.90;;;-3.10;99.90;;;;;;4959664;28;20189;-94
2021/12/25 03:28:24;;;;;;;3.53;0.80;;;-3.20;99.90;;;;;;4958325;28;20189;-94
2021/12/25 03:30:50;;;;;;;0.80;0.60;;;-3.30;99.90;;;;;;4958029;28;20263;-94
2021/12/25 03:33:20;;;;;;;1.40;0.60;;;-3.30;99.90;;;;;;4958651;28;20182;-94
2021/12/25 03:35:46;;;;;;;1.10;0.60;;;-3.30;99.90;;;;;;4959054;28;20177;-95
2021/12/25 03:38:15;;;;;;;3.70;0.80;;;-3.30;99.90;;;;;;4958106;28;20205;-93
2021/12/25 03:40:42;;;;;;;0.70;0.53;;;-3.30;99.90;;;;;;4945915;29;20214;-95
2021/12/25 03:43:08;;;;;;;1.87;0.60;;;-3.20;99.90;;;;;;4919781;29;20174;-94
2021/12/25 03:45:35;;;;;;;1.90;0.67;;;-3.30;99.90;;;;;;4919540;29;20241;-94
2021/12/25 03:48:28;;;;;;;3.50;0.53;;;-3.30;99.90;;;;;;4919772;29;20671;-94
2021/12/25 03:59:02;;;;;;;2.63;0.60;;;-3.40;99.90;;;;;;4939021;29;20232;-93
2021/12/25 04:01:45;;;;;;;1.90;0.70;;;-3.40;99.90;;;;;;4923410;29;20376;-93
2021/12/25 04:04:31;;;;;;;0.87;0.70;;;-3.50;99.90;;;;;;4922828;29;20213;-93
2021/12/25 04:07:05;;;;;;;1.23;0.60;;;-3.50;99.90;;;;;;4922960;29;20205;-92
2021/12/25 04:09:33;;;;;;;2.60;0.70;;;-3.70;99.90;;;;;;4923254;29;20243;-93
2021/12/25 04:12:04;;;;;;;4.03;0.70;;;-3.70;99.90;;;;;;4923500;29;20661;-92
2021/12/25 04:14:37;;;;;;;0.80;0.70;;;-3.70;99.90;;;;;;4923441;29;20200;-92
2021/12/25 04:17:04;;;;;;;1.67;0.80;;;-3.70;99.90;;;;;;4923133;29;20236;-92
2021/12/25 04:20:08;;;;;;;1.80;0.43;;;-3.70;99.90;;;;;;4923155;29;20217;-93
2021/12/25 04:23:04;;;;;;;2.07;0.67;;;-3.60;99.90;;;;;;4923693;29;20189;-96
2021/12/25 04:25:32;;;;;;;1.27;0.50;;;-3.60;99.90;;;;;;4928798;29;20241;-93
2021/12/25 04:28:28;;;;;;;2.23;0.80;;;-3.60;99.90;;;;;;4940178;28;20705;-94
2021/12/25 05:05:46;;;;;;;2.00;0.47;;;-3.80;99.90;;;;;;4937736;29;20224;-91
2021/12/25 05:08:15;;;;;;;2.33;0.60;;;-3.80;99.90;;;;;;4921663;29;20206;-92
2021/12/25 05:10:48;;;;;;;1.20;0.57;;;-3.90;99.90;;;;;;4920983;29;20345;-92
2021/12/25 05:13:21;;;;;;;1.53;0.60;;;-3.90;99.90;;;;;;4921490;29;20276;-91
2021/12/25 05:15:55;;;;;;;0.73;0.60;;;-3.90;99.90;;;;;;4921556;29;20194;-92
2021/12/25 05:18:45;;;;;;;0.97;0.63;;;-3.90;99.90;;;;;;4921477;29;20190;-91
2021/12/25 05:21:20;;;;;;;0.97;0.60;;;-3.90;99.90;;;;;;4919014;29;20206;-92
2021/12/25 05:23:54;;;;;;;2.10;0.50;;;-3.90;99.90;;;;;;4902618;29;20216;-92
2021/12/25 05:26:35;;;;;;;6.07;0.77;;;-3.90;99.90;;;;;;4902463;29;20718;-91
2021/12/25 05:29:02;;;;;;;2.10;0.93;;;-3.90;99.90;;;;;;4918849;29;20189;-92
2021/12/25 05:31:34;;;;;;;1.23;0.87;;;-3.90;99.90;;;;;;4922113;29;20195;-92
2021/12/25 05:34:04;;;;;;;4.70;0.90;;;-4.00;99.90;;;;;;4921952;29;20220;-93
2021/12/25 05:36:30;;;;;;;3.87;0.87;;;-4.00;99.90;;;;;;4921940;29;20217;-93
2021/12/25 05:38:59;;;;;;;0.73;0.60;;;-4.10;99.90;;;;;;4922072;29;20241;-92
2021/12/25 05:41:28;;;;;;;2.67;0.80;;;-4.10;99.90;;;;;;4922068;29;20194;-93
2021/12/25 05:43:54;;;;;;;2.37;0.60;;;-4.10;99.90;;;;;;4922012;29;20178;-93
2021/12/25 05:46:24;;;;;;;2.97;0.73;;;-4.10;99.90;;;;;;4921743;29;20292;-91
2021/12/25 05:49:02;;;;;;;2.37;0.70;;;-4.10;99.90;;;;;;4921790;29;20213;-91
2021/12/25 05:51:30;;;;;;;1.77;0.77;;;-4.20;99.90;;;;;;4922083;29;20192;-92
2021/12/25 05:53:59;;;;;;;6.33;1.23;;;-4.10;99.90;;;;;;4921487;29;20181;-93
2021/12/25 05:56:44;;;;;;;2.67;0.80;;;-4.10;99.90;;;;;;4921565;29;20202;-93
2021/12/25 05:59:10;;;;;;;1.50;0.77;;;-4.10;99.90;;;;;;4937292;29;20233;-92
2021/12/25 06:01:42;;;;;;;2.07;0.60;;;-4.20;99.90;;;;;;4921427;29;20178;-91
2021/12/25 06:04:15;;;;;;;1.00;0.60;;;-4.20;99.90;;;;;;4921724;29;20186;-92
2021/12/25 06:07:02;;;;;;;1.30;0.67;;;-4.20;99.90;;;;;;4921752;29;20213;-92
2021/12/25 06:09:32;;;;;;;1.50;0.87;;;-4.30;99.90;;;;;;4936813;29;20182;-93
2021/12/25 06:12:00;;;;;;;3.37;1.00;;;-4.40;99.90;;;;;;4920869;29;20195;-93
2021/12/25 06:14:39;;;;;;;2.70;1.17;;;-4.40;99.90;;;;;;4927239;28;20204;-91
2021/12/25 06:17:24;;;;;;;1.93;0.80;;;-4.40;99.90;;;;;;4959379;28;20212;-94
2021/12/25 06:20:13;;;;;;;3.67;0.97;;;-4.50;99.90;;;;;;4959111;28;20227;-93
2021/12/25 06:22:40;;;;;;;1.77;0.90;;;-4.40;99.90;;;;;;4946291;28;20181;-91
2021/12/25 06:25:07;;;;;;;1.53;0.80;;;-4.40;99.90;;;;;;4942169;29;20601;-92
2021/12/25 06:27:33;;;;;;;1.73;0.80;;;-4.40;99.90;;;;;;4939563;29;20213;-92
2021/12/25 06:29:59;;;;;;;3.20;1.00;;;-4.40;99.90;;;;;;4952657;29;20189;-91
2021/12/25 06:32:30;;;;;;;1.30;0.97;;;-4.50;99.90;;;;;;4941094;29;20197;-91
2021/12/25 06:34:58;;;;;;;1.20;0.77;;;-4.40;99.90;;;;;;4939957;29;20188;-91
2021/12/25 06:37:30;;;;;;;2.30;0.90;;;-4.50;99.90;;;;;;4939981;29;20223;-92
2021/12/25 06:39:57;;;;;;;4.60;1.17;;;-4.50;99.90;;;;;;4953030;28;20215;-91
2021/12/25 06:42:34;;;;;;;3.97;1.20;;;-4.50;99.90;;;;;;4959264;28;20284;-92
2021/12/25 06:45:30;;;;;;;3.27;1.20;;;-4.50;99.90;;;;;;4958853;28;20706;-92
2021/12/25 06:48:31;;;;;;;3.87;1.20;;;-4.60;99.90;;;;;;4936281;29;20217;-90
2021/12/25 06:51:44;;;;;;;1.57;1.00;;;-4.60;99.90;;;;;;4920904;29;20196;-91
2021/12/25 06:54:19;;;;;;;1.90;1.03;;;-4.60;99.90;;;;;;4936293;29;20192;-91
2021/12/25 06:56:47;;;;;;;0.83;0.63;;;-4.60;99.90;;;;;;4939295;29;20245;-91
2021/12/25 06:59:17;;;;;;;2.47;1.00;;;-4.70;99.90;;;;;;4940398;29;20720;-92
2021/12/25 07:01:44;;;;;;;2.20;0.90;;;-4.70;99.90;;;;;;4939930;29;20313;-92
2021/12/25 07:04:32;;;;;;;2.73;0.83;;;-4.70;99.90;;;;;;4939504;29;20408;-92
2021/12/25 07:07:10;;;;;;;1.37;0.80;;;-4.70;99.90;;;;;;4939064;29;20208;-92
2021/12/25 07:09:36;;;;;;;1.20;0.73;;;-4.70;99.90;;;;;;4939449;29;20227;-92
2021/12/25 07:12:24;;;;;;;1.50;0.93;;;-4.70;99.90;;;;;;4939520;29;20185;-91
2021/12/25 07:15:21;;;;;;;1.43;0.90;;;-4.70;99.90;;;;;;4942493;29;20200;-91
2021/12/25 07:17:50;;;;;;;4.33;0.80;;;-4.70;99.90;;;;;;4936256;29;20304;-90
2021/12/25 07:20:22;;;;;;;3.50;0.97;;;-4.80;99.90;;;;;;4929626;29;20260;-91
2021/12/25 07:23:02;;;;;;;1.70;0.87;;;-4.90;99.90;;;;;;4938995;29;20280;-91
2021/12/25 07:25:33;;;;;;;2.07;0.73;;;-4.80;99.90;;;;;;4938637;29;20184;-90
2021/12/25 07:28:02;;;;;;;3.73;0.80;;;-4.80;99.90;;;;;;4939016;29;20208;-91
2021/12/25 07:30:32;;;;;;;0.90;0.70;;;-4.80;99.90;;;;;;4938321;29;20523;-91
2021/12/25 07:33:00;;;;;;;1.07;0.80;;;-4.80;99.90;;;;;;4939106;29;20248;-91
2021/12/25 07:35:27;;;;;;;2.27;0.87;;;-4.90;99.90;;;;;;4938842;29;20226;-91
2021/12/25 07:37:54;;;;;;;1.40;0.80;;;-4.90;99.90;;;;;;4938227;29;20610;-91
2021/12/25 07:40:20;;;;;;;2.53;0.90;;;-5.00;99.90;;;;;;4938547;29;20212;-91
2021/12/25 07:42:54;;;;;;;2.43;1.10;;;-4.90;99.90;;;;;;4935828;29;20198;-90
2021/12/25 07:45:37;;;;;;;2.90;1.33;;;-5.00;99.90;;;;;;4921981;29;20222;-90
2021/12/25 07:48:29;;;;;;;7.17;2.60;;;-5.20;99.90;;;;;;4938435;29;20257;-90
2021/12/25 07:50:55;;;;;;;99.57;18.50;;;-5.30;99.90;;;;;;4938755;29;20211;-90
2021/12/25 07:53:22;;;;;;;61.37;26.40;;;-5.40;99.90;;;;;;4923067;29;20192;-90
2021/12/25 07:56:34;;;;;;;8.43;3.93;;;-5.50;99.90;;;;;;4919698;29;20183;-90
2021/12/25 07:59:03;;;;;;;3.57;1.20;;;-5.40;99.90;;;;;;4947842;29;20204;-91
2021/12/25 08:01:35;;;;;;;3.07;1.13;;;-5.40;99.90;;;;;;4919473;29;20245;-91
2021/12/25 08:04:05;;;;;;;6.53;3.10;;;-5.50;99.90;;;;;;4934869;29;20670;-91
2021/12/25 08:06:34;;;;;;;6.50;2.03;;;-5.50;99.90;;;;;;4919291;29;20237;-90
2021/12/25 08:09:01;;;;;;;11.27;5.03;;;-5.50;99.90;;;;;;4938955;29;20185;-90
2021/12/25 08:11:32;;;;;;;3.37;1.40;;;-5.50;99.90;;;;;;4955070;29;20252;-91
2021/12/25 08:13:58;;;;;;;36.10;15.90;;;-5.60;99.90;;;;;;4945257;29;20241;-90
2021/12/25 08:16:44;;;;;;;82.13;42.50;;;-5.70;99.90;;;;;;4937944;29;20210;-91
2021/12/25 08:19:14;;;;;;;26.03;13.10;;;-5.70;99.90;;;;;;4938662;29;20225;-91
2021/12/25 08:21:50;;;;;;;9.60;4.83;;;-5.70;99.90;;;;;;4938296;29;20184;-91
2021/12/25 08:24:28;;;;;;;9.70;4.70;;;-5.70;99.90;;;;;;4938240;29;20239;-90
2021/12/25 08:26:57;;;;;;;80.27;40.53;;;-5.60;99.90;;;;;;4938166;29;20217;-90
2021/12/25 08:29:24;;;;;;;8.47;5.10;;;-5.60;99.90;;;;;;4938519;29;20181;-90
2021/12/25 08:32:23;;;;;;;4.00;2.70;;;-5.50;99.90;;;;;;4938271;29;20178;-91
2021/12/25 08:35:10;;;;;;;2.33;1.27;;;-5.50;99.90;;;;;;4938306;28;20217;-91
2021/12/25 08:37:40;;;;;;;1.63;1.10;;;-5.50;99.90;;;;;;4957529;28;20209;-91
2021/12/25 08:40:19;;;;;;;1.53;1.00;;;-5.50;99.90;;;;;;4957230;28;20643;-91
2021/12/25 08:42:52;;;;;;;2.27;0.87;;;-5.50;99.90;;;;;;4955116;28;20190;-90
2021/12/25 08:45:40;;;;;;;2.17;1.10;;;-5.50;99.90;;;;;;4941503;29;20179;-91
2021/12/25 08:48:35;;;;;;;1.43;1.00;;;-5.40;99.90;;;;;;4941690;29;20211;-91
2021/12/25 08:51:03;;;;;;;1.40;0.90;;;-5.40;99.90;;;;;;4941620;29;20669;-91
2021/12/25 08:53:30;;;;;;;1.70;1.00;;;-5.40;99.90;;;;;;4941259;29;20189;-91
2021/12/25 08:55:57;;;;;;;2.07;0.90;;;-5.30;99.90;;;;;;4946291;29;20190;-90
2021/12/25 08:58:30;;;;;;;1.50;1.00;;;-5.20;99.90;;;;;;4936389;29;20222;-92
2021/12/25 09:01:07;;;;;;;1.57;1.10;;;-5.20;99.90;;;;;;4922982;29;20211;-93
2021/12/25 09:04:00;;;;;;;2.10;1.27;;;-5.10;99.90;;;;;;4927680;29;20690;-91
2021/12/25 09:06:38;;;;;;;3.10;1.30;;;-5.10;99.90;;;;;;4941323;29;20213;-91
2021/12/25 09:09:48;;;;;;;1.57;0.80;;;-5.10;99.90;;;;;;4941477;29;20663;-91
2021/12/25 09:12:21;;;;;;;1.73;1.20;;;-5.10;99.90;;;;;;4922525;29;20185;-91
2021/12/25 09:15:05;;;;;;;4.93;2.83;;;-5.10;99.90;;;;;;4920856;29;20194;-90
2021/12/25 09:17:33;;;;;;;2.47;1.50;;;-5.10;99.90;;;;;;4906050;29;20565;-90
2021/12/25 09:19:59;;;;;;;5.47;2.43;;;-5.00;99.90;;;;;;4921862;29;20220;-90
2021/12/25 09:22:41;;;;;;;2.77;2.10;;;-4.90;99.90;;;;;;4922063;29;20691;-90
2021/12/25 09:25:23;;;;;;;4.70;1.53;;;-5.00;99.90;;;;;;4922272;29;20180;-91
2021/12/25 09:27:50;;;;;;;4.27;1.90;;;-4.90;99.90;;;;;;4922120;29;20228;-91
2021/12/25 09:30:17;;;;;;;7.40;4.03;;;-4.90;99.90;;;;;;4922087;29;20663;-91
2021/12/25 09:33:08;;;;;;;4.07;3.30;;;-4.90;99.90;;;;;;4921859;29;20562;-91
2021/12/25 09:35:49;;;;;;;6.00;2.10;;;-4.90;99.90;;;;;;4922020;29;20242;-91
2021/12/25 09:38:26;;;;;;;11.13;4.73;;;-4.80;99.90;;;;;;4921966;29;20180;-91
2021/12/25 09:41:06;;;;;;;6.97;3.47;;;-4.90;99.90;;;;;;4918591;29;20224;-91
2021/12/25 09:43:34;;;;;;;4.03;1.50;;;-4.80;99.90;;;;;;4902967;29;20267;-91
2021/12/25 09:46:17;;;;;;;5.10;1.67;;;-4.70;99.90;;;;;;4918568;29;20662;-91
2021/12/25 09:49:13;;;;;;;5.07;1.80;;;-4.70;99.90;;;;;;4918505;29;20182;-92
2021/12/25 09:51:50;;;;;;;3.50;1.47;;;-4.60;99.90;;;;;;4902884;29;20313;-92
2021/12/25 09:54:19;;;;;;;4.03;1.70;;;-4.50;99.90;;;;;;4902926;29;20184;-92
2021/12/25 09:57:01;;;;;;;4.37;1.67;;;-4.50;99.90;;;;;;4917773;29;20209;-92
2021/12/25 09:59:28;;;;;;;2.97;1.40;;;-4.50;99.90;;;;;;4919306;29;20207;-91
2021/12/25 10:02:01;;;;;;;3.43;1.63;;;-4.50;99.90;;;;;;4902942;29;20182;-92
2021/12/25 10:04:45;;;;;;;2.30;1.40;;;-4.40;99.90;;;;;;4903010;29;20232;-93
2021/12/25 10:07:32;;;;;;;1.60;1.20;;;-4.40;99.90;;;;;;4902554;29;20279;-92
2021/12/25 10:10:16;;;;;;;4.73;1.70;;;-4.30;99.90;;;;;;4903218;29;20738;-93
2021/12/25 10:13:00;;;;;;;5.63;2.00;;;-4.20;99.90;;;;;;4951165;28;20194;-93
2021/12/25 10:15:29;;;;;;;2.77;1.57;;;-4.10;99.90;;;;;;4940587;29;20544;-93
2021/12/25 10:18:09;;;;;;;2.57;1.10;;;-4.00;99.90;;;;;;4940147;29;20219;-93
2021/12/25 10:20:41;;;;;;;5.30;1.73;;;-4.00;99.90;;;;;;4940247;29;20219;-92
2021/12/25 10:23:21;;;;;;;9.87;5.47;;;-3.90;99.90;;;;;;4940187;29;20205;-92
2021/12/25 10:25:55;;;;;;;3.30;2.27;;;-3.90;99.90;;;;;;4940242;29;20188;-93
2021/12/25 10:28:34;;;;;;;5.00;3.17;;;-3.80;99.90;;;;;;4935605;29;20218;-92
2021/12/25 10:34:38;;;;;;;4.77;3.00;;;-3.70;99.90;;;;;;4957475;29;20640;-92
2021/12/25 10:37:44;;;;;;;1.37;1.13;;;-3.70;99.90;;;;;;4920780;29;20209;-93
2021/12/25 10:40:58;;;;;;;2.87;2.10;;;-3.70;99.90;;;;;;4938881;29;20221;-93
2021/12/25 10:43:25;;;;;;;3.57;1.50;;;-3.60;99.90;;;;;;4863412;29;20235;-92
2021/12/25 10:46:02;;;;;;;2.43;1.10;;;-3.60;99.90;;;;;;4864038;29;20204;-94
2021/12/25 10:48:35;;;;;;;2.40;1.10;;;-3.60;99.90;;;;;;4940229;29;20639;-92
2021/12/25 10:51:26;;;;;;;1.43;0.90;;;-3.50;99.90;;;;;;4940159;29;20189;-94
2021/12/25 10:54:18;;;;;;;5.53;1.83;;;-3.40;99.90;;;;;;4939492;29;20271;-93
2021/12/25 10:57:07;;;;;;;2.70;1.37;;;-3.40;99.90;;;;;;4976318;28;20224;-92
2021/12/25 10:59:52;;;;;;;2.10;1.30;;;-3.40;99.90;;;;;;4959917;28;20356;-92
2021/12/25 11:02:38;;;;;;;6.27;1.43;;;-3.30;99.90;;;;;;4959250;28;20185;-92
2021/12/25 11:05:47;;;;;;;1.73;1.00;;;-3.30;99.90;;;;;;4958667;28;20240;-93
2021/12/25 11:08:27;;;;;;;3.13;1.10;;;-3.20;99.90;;;;;;4938894;28;20209;-94
2021/12/25 11:10:59;;;;;;;2.20;0.90;;;-3.30;99.90;;;;;;4955526;29;20311;-93
2021/12/25 11:14:07;;;;;;;4.70;1.23;;;-3.20;99.90;;;;;;4937703;29;20217;-92
2021/12/25 11:16:39;;;;;;;3.63;1.10;;;-3.20;99.90;;;;;;4920722;29;20223;-94
2021/12/25 11:19:12;;;;;;;2.20;1.20;;;-3.20;99.90;;;;;;4920656;29;20219;-93
2021/12/25 11:22:00;;;;;;;3.40;1.10;;;-3.10;99.90;;;;;;4920415;29;20281;-93
2021/12/25 11:24:36;;;;;;;2.97;1.13;;;-3.00;99.90;;;;;;4920172;29;20192;-91
2021/12/25 11:27:26;;;;;;;1.87;1.07;;;-2.90;99.90;;;;;;4919133;29;20205;-92
2021/12/25 11:30:12;;;;;;;1.83;0.93;;;-2.90;99.90;;;;;;4936263;29;20186;-92
2021/12/25 11:32:43;;;;;;;2.70;1.00;;;-2.90;99.90;;;;;;4936571;29;20181;-92
2021/12/25 11:35:23;;;;;;;3.13;0.90;;;-2.90;99.90;;;;;;4938880;29;20670;-92
2021/12/25 11:38:02;;;;;;;4.03;1.13;;;-2.90;99.90;;;;;;4938764;29;20209;-92
2021/12/25 11:43:04;;;;;;;2.80;1.20;;;-2.80;99.90;;;;;;4956344;29;20162;-93
2021/12/25 11:45:52;;;;;;;6.10;1.27;;;-2.70;99.90;;;;;;4939034;29;20699;-92
2021/12/25 11:48:38;;;;;;;3.23;1.57;;;-2.70;99.90;;;;;;4939192;29;20217;-92
2021/12/25 11:51:31;;;;;;;2.23;1.13;;;-2.70;99.90;;;;;;4939233;29;20195;-92
2021/12/25 11:57:31;;;;;;;3.07;0.93;;;-2.70;99.90;;;;;;4951944;29;20212;-93
2021/12/25 11:59:58;;;;;;;2.90;0.77;;;-2.60;99.90;;;;;;4954916;28;20315;-93
2021/12/25 12:05:48;;;;;;;4.10;2.37;;;-2.50;99.90;;;;;;4956087;29;20260;-93
2021/12/25 12:08:22;;;;;;;3.63;0.90;;;-2.60;99.90;;;;;;4938570;29;20180;-92
2021/12/25 12:11:03;;;;;;;1.60;0.70;;;-2.60;99.90;;;;;;4938576;29;20233;-93
2021/12/25 12:13:33;;;;;;;1.17;0.83;;;-2.50;99.90;;;;;;4939013;29;20284;-93
2021/12/25 12:16:02;;;;;;;2.03;1.00;;;-2.50;99.90;;;;;;4938899;29;20555;-92
2021/12/25 12:18:31;;;;;;;2.40;1.10;;;-2.50;99.90;;;;;;4938797;28;20193;-91
2021/12/25 12:21:39;;;;;;;2.23;1.00;;;-2.50;99.90;;;;;;4941563;29;20642;-92
2021/12/25 12:28:04;;;;;;;5.10;1.30;;;-2.40;99.90;;;;;;4861944;29;20216;-91
2021/12/25 12:30:34;;;;;;;2.37;0.87;;;-2.40;99.90;;;;;;4942503;29;20197;-93
2021/12/25 12:33:15;;;;;;;2.20;0.90;;;-2.40;99.90;;;;;;4942411;29;20193;-92
2021/12/25 12:35:56;;;;;;;2.17;1.00;;;-2.40;99.90;;;;;;4954809;28;20612;-92
2021/12/25 12:38:47;;;;;;;3.30;0.87;;;-2.40;99.90;;;;;;4961523;28;20628;-92
2021/12/25 12:41:21;;;;;;;3.03;0.90;;;-2.40;99.90;;;;;;4960618;28;20258;-92
2021/12/25 12:43:54;;;;;;;1.43;0.73;;;-2.40;99.90;;;;;;4961296;28;20550;-91
2021/12/25 12:46:21;;;;;;;2.40;0.97;;;-2.40;99.90;;;;;;4961405;28;20253;-92
2021/12/25 12:49:07;;;;;;;1.83;0.83;;;-2.40;99.90;;;;;;4961245;28;20181;-92
2021/12/25 12:52:26;;;;;;;1.93;0.67;;;-2.40;99.90;;;;;;4961218;28;20227;-92
2021/12/25 12:55:27;;;;;;;2.47;0.90;;;-2.40;99.90;;;;;;4961111;28;20485;-92
2021/12/25 12:58:19;;;;;;;1.47;0.80;;;-2.40;99.90;;;;;;4958377;28;20667;-91
2021/12/25 13:00:50;;;;;;;3.83;0.93;;;-2.40;99.90;;;;;;4960935;28;20559;-91
2021/12/25 13:03:27;;;;;;;2.63;0.90;;;-2.40;99.90;;;;;;4961048;28;20194;-92
2021/12/25 13:06:10;;;;;;;4.17;0.90;;;-2.40;99.90;;;;;;4960525;28;20184;-91
2021/12/25 13:08:47;;;;;;;5.70;1.23;;;-2.40;99.90;;;;;;4970698;28;20197;-92
2021/12/25 13:13:59;;;;;;;1.70;1.20;;;-2.20;99.90;;;;;;4978207;28;20173;-91
2021/12/25 13:16:39;;;;;;;1.57;0.90;;;-2.20;99.90;;;;;;4960668;28;20209;-91
2021/12/25 13:19:11;;;;;;;2.30;0.80;;;-2.20;99.90;;;;;;4960563;28;20185;-91
2021/12/25 13:21:49;;;;;;;1.23;0.80;;;-2.30;99.90;;;;;;4960567;28;20657;-91
2021/12/25 13:24:45;;;;;;;0.90;0.53;;;-2.30;99.90;;;;;;4960362;28;20192;-91
2021/12/25 13:27:39;;;;;;;2.53;0.70;;;-2.20;99.90;;;;;;4956841;29;20209;-91
2021/12/25 13:30:17;;;;;;;0.83;0.63;;;-2.30;99.90;;;;;;4940621;28;20193;-91
2021/12/25 13:33:20;;;;;;;2.37;1.00;;;-2.30;99.90;;;;;;4941296;29;20212;-92
2021/12/25 13:39:16;;;;;;;4.27;1.83;;;-2.30;99.90;;;;;;4957998;29;20243;-92
2021/12/25 13:41:57;;;;;;;1.10;0.90;;;-2.30;99.90;;;;;;4941047;29;20268;-91
2021/12/25 13:44:35;;;;;;;2.60;0.93;;;-2.40;99.90;;;;;;4945653;28;20199;-92
2021/12/25 13:47:34;;;;;;;3.93;0.93;;;-2.40;99.90;;;;;;4960215;28;20205;-90
2021/12/25 13:50:06;;;;;;;1.63;0.70;;;-2.40;99.90;;;;;;4960221;28;20176;-92
2021/12/25 13:52:46;;;;;;;1.53;0.73;;;-2.50;99.90;;;;;;4960066;28;20267;-92
2021/12/25 13:55:26;;;;;;;1.77;0.80;;;-2.50;99.90;;;;;;4959895;28;20176;-92
2021/12/25 13:57:54;;;;;;;1.57;0.90;;;-2.50;99.90;;;;;;4967220;28;20659;-91
2021/12/25 14:00:32;;;;;;;3.30;1.00;;;-2.50;99.90;;;;;;4954941;28;20328;-91
2021/12/25 14:03:12;;;;;;;1.47;0.80;;;-2.60;99.90;;;;;;4959800;28;20245;-92
2021/12/25 14:05:48;;;;;;;3.20;0.87;;;-2.60;99.90;;;;;;4959736;28;20666;-91
2021/12/25 14:08:17;;;;;;;2.47;0.80;;;-2.60;99.90;;;;;;4959760;28;20215;-91
2021/12/25 14:10:43;;;;;;;3.43;0.93;;;-2.70;99.90;;;;;;4959344;28;20231;-93
2021/12/25 14:13:20;;;;;;;1.20;0.80;;;-2.70;99.90;;;;;;4959718;28;20268;-92
2021/12/25 14:15:51;;;;;;;3.23;0.90;;;-2.70;99.90;;;;;;4959765;28;20205;-92
2021/12/25 14:18:21;;;;;;;2.57;0.87;;;-2.70;99.90;;;;;;4959488;28;20271;-92
2021/12/25 14:20:48;;;;;;;2.47;1.20;;;-2.70;99.90;;;;;;4959479;28;20752;-91
2021/12/25 14:23:21;;;;;;;3.70;1.50;;;-2.80;99.90;;;;;;4959672;28;20201;-91
2021/12/25 14:26:05;;;;;;;1.37;1.00;;;-2.80;99.90;;;;;;4959529;28;20659;-91
2021/12/25 14:28:34;;;;;;;3.17;1.17;;;-2.80;99.90;;;;;;4959697;28;20184;-92
2021/12/25 14:31:17;;;;;;;1.63;1.20;;;-2.80;99.90;;;;;;4959126;28;20193;-92
2021/12/25 14:34:04;;;;;;;3.07;1.30;;;-2.80;99.90;;;;;;4959178;28;20199;-91
2021/12/25 14:36:38;;;;;;;1.83;1.03;;;-2.90;99.90;;;;;;4959093;28;20213;-93
2021/12/25 14:39:16;;;;;;;3.30;1.33;;;-3.00;99.90;;;;;;4959209;28;20184;-92
2021/12/25 14:45:18;;;;;;;1.80;1.10;;;-3.00;99.90;;;;;;4976660;28;20176;-92
2021/12/25 14:47:54;;;;;;;5.77;1.40;;;-3.10;99.90;;;;;;4958978;28;20208;-92
2021/12/25 14:50:31;;;;;;;3.77;1.30;;;-3.20;99.90;;;;;;4958741;28;20184;-91
2021/12/25 14:53:18;;;;;;;4.37;1.97;;;-3.20;99.90;;;;;;4958940;28;20583;-91
2021/12/25 14:55:50;;;;;;;4.40;1.50;;;-3.30;99.90;;;;;;4958915;28;20181;-92
2021/12/25 14:58:54;;;;;;;5.70;1.67;;;-3.40;99.90;;;;;;4958262;28;20184;-92
2021/12/25 15:01:23;;;;;;;2.10;1.10;;;-3.40;99.90;;;;;;4943844;29;20193;-92
2021/12/25 15:04:32;;;;;;;6.57;1.57;;;-3.50;99.90;;;;;;4920791;29;20177;-91
2021/12/25 15:07:17;;;;;;;4.30;1.47;;;-3.60;99.90;;;;;;4920662;29;20295;-92